sensor_id;sensor_type;location;lat;lon;timestamp;P1;durP1;ratioP1;P2;durP2;ratioP2
80778;SDS011;70170;47.856;10.956;2023-05-29T00:01:20;35.35;;;19.02;;
80778;SDS011;70170;47.856;10.956;2023-05-29T00:03:46;18.00;;;10.77;;
80778;SDS011;70170;47.856;10.956;2023-05-29T00:06:11;15.52;;;10.02;;
80778;SDS011;70170;47.856;10.956;2023-05-29T00:08:38;15.27;;;9.70;;
80778;SDS011;70170;47.856;10.956;2023-05-29T00:11:03;13.63;;;6.97;;
80778;SDS011;70170;47.856;10.956;2023-05-29T00:13:29;17.02;;;6.05;;
80778;SDS011;70170;47.856;10.956;2023-05-29T00:15:54;16.27;;;6.00;;
80778;SDS011;70170;47.856;10.956;2023-05-29T00:18:20;8.93;;;5.28;;
80778;SDS011;70170;47.856;10.956;2023-05-29T00:20:45;9.63;;;5.78;;
80778;SDS011;70170;47.856;10.956;2023-05-29T00:23:11;11.00;;;5.10;;
80778;SDS011;70170;47.856;10.956;2023-05-29T00:25:36;13.93;;;5.93;;
80778;SDS011;70170;47.856;10.956;2023-05-29T00:28:01;10.98;;;5.55;;
80778;SDS011;70170;47.856;10.956;2023-05-29T00:30:27;11.20;;;5.88;;
80778;SDS011;70170;47.856;10.956;2023-05-29T00:32:52;11.18;;;5.90;;
80778;SDS011;70170;47.856;10.956;2023-05-29T00:35:17;9.13;;;5.57;;
80778;SDS011;70170;47.856;10.956;2023-05-29T00:37:43;15.00;;;7.47;;
80778;SDS011;70170;47.856;10.956;2023-05-29T00:40:08;12.38;;;8.48;;
80778;SDS011;70170;47.856;10.956;2023-05-29T00:42:34;17.27;;;9.18;;
80778;SDS011;70170;47.856;10.956;2023-05-29T00:45:00;15.88;;;8.20;;
80778;SDS011;70170;47.856;10.956;2023-05-29T00:47:25;14.82;;;8.13;;
80778;SDS011;70170;47.856;10.956;2023-05-29T00:49:51;12.98;;;8.18;;
80778;SDS011;70170;47.856;10.956;2023-05-29T00:52:17;13.50;;;7.95;;
80778;SDS011;70170;47.856;10.956;2023-05-29T00:54:44;15.50;;;8.00;;
80778;SDS011;70170;47.856;10.956;2023-05-29T00:57:10;13.80;;;7.70;;
80778;SDS011;70170;47.856;10.956;2023-05-29T00:59:37;15.90;;;8.30;;
80778;SDS011;70170;47.856;10.956;2023-05-29T01:02:04;12.48;;;6.97;;
80778;SDS011;70170;47.856;10.956;2023-05-29T01:04:29;16.67;;;7.13;;
80778;SDS011;70170;47.856;10.956;2023-05-29T01:06:58;13.15;;;6.28;;
80778;SDS011;70170;47.856;10.956;2023-05-29T01:09:23;13.82;;;6.32;;
80778;SDS011;70170;47.856;10.956;2023-05-29T01:14:43;10.38;;;6.85;;
80778;SDS011;70170;47.856;10.956;2023-05-29T01:28:14;14.00;;;6.70;;
80778;SDS011;70170;47.856;10.956;2023-05-29T01:30:43;14.40;;;7.47;;
80778;SDS011;70170;47.856;10.956;2023-05-29T01:33:08;11.13;;;6.95;;
80778;SDS011;70170;47.856;10.956;2023-05-29T01:35:34;9.88;;;5.97;;
80778;SDS011;70170;47.856;10.956;2023-05-29T01:38:00;12.05;;;6.32;;
80778;SDS011;70170;47.856;10.956;2023-05-29T01:40:25;15.10;;;7.70;;
80778;SDS011;70170;47.856;10.956;2023-05-29T01:42:51;11.82;;;6.65;;
80778;SDS011;70170;47.856;10.956;2023-05-29T01:45:17;14.40;;;7.03;;
80778;SDS011;70170;47.856;10.956;2023-05-29T01:47:43;20.42;;;6.78;;
80778;SDS011;70170;47.856;10.956;2023-05-29T01:50:08;18.45;;;7.85;;
80778;SDS011;70170;47.856;10.956;2023-05-29T01:52:35;12.52;;;7.68;;
80778;SDS011;70170;47.856;10.956;2023-05-29T01:55:01;17.73;;;8.15;;
80778;SDS011;70170;47.856;10.956;2023-05-29T01:57:26;13.15;;;7.13;;
80778;SDS011;70170;47.856;10.956;2023-05-29T01:59:52;14.73;;;8.68;;
80778;SDS011;70170;47.856;10.956;2023-05-29T02:02:21;13.95;;;7.53;;
80778;SDS011;70170;47.856;10.956;2023-05-29T02:04:47;16.55;;;7.55;;
80778;SDS011;70170;47.856;10.956;2023-05-29T02:07:13;14.00;;;7.65;;
80778;SDS011;70170;47.856;10.956;2023-05-29T02:09:40;11.90;;;6.68;;
80778;SDS011;70170;47.856;10.956;2023-05-29T02:12:06;16.00;;;6.18;;
80778;SDS011;70170;47.856;10.956;2023-05-29T02:14:32;12.93;;;5.53;;
80778;SDS011;70170;47.856;10.956;2023-05-29T02:16:57;10.60;;;6.10;;
80778;SDS011;70170;47.856;10.956;2023-05-29T02:19:22;10.68;;;5.25;;
80778;SDS011;70170;47.856;10.956;2023-05-29T02:21:50;15.48;;;6.30;;
80778;SDS011;70170;47.856;10.956;2023-05-29T02:24:15;9.32;;;5.65;;
80778;SDS011;70170;47.856;10.956;2023-05-29T02:26:41;12.70;;;6.35;;
80778;SDS011;70170;47.856;10.956;2023-05-29T02:29:07;10.55;;;5.63;;
80778;SDS011;70170;47.856;10.956;2023-05-29T02:31:32;15.48;;;6.00;;
80778;SDS011;70170;47.856;10.956;2023-05-29T02:33:58;9.63;;;5.93;;
80778;SDS011;70170;47.856;10.956;2023-05-29T02:36:23;17.33;;;5.97;;
80778;SDS011;70170;47.856;10.956;2023-05-29T02:38:49;13.07;;;5.85;;
80778;SDS011;70170;47.856;10.956;2023-05-29T02:41:14;14.82;;;5.93;;
80778;SDS011;70170;47.856;10.956;2023-05-29T02:43:40;15.88;;;7.03;;
80778;SDS011;70170;47.856;10.956;2023-05-29T02:46:05;9.85;;;5.72;;
80778;SDS011;70170;47.856;10.956;2023-05-29T02:48:30;15.50;;;6.63;;
80778;SDS011;70170;47.856;10.956;2023-05-29T02:50:56;9.98;;;6.15;;
80778;SDS011;70170;47.856;10.956;2023-05-29T02:53:21;11.82;;;6.75;;
80778;SDS011;70170;47.856;10.956;2023-05-29T02:55:47;18.15;;;10.18;;
80778;SDS011;70170;47.856;10.956;2023-05-29T02:58:13;20.92;;;10.82;;
80778;SDS011;70170;47.856;10.956;2023-05-29T03:00:41;11.70;;;6.95;;
80778;SDS011;70170;47.856;10.956;2023-05-29T03:03:06;12.77;;;7.10;;
80778;SDS011;70170;47.856;10.956;2023-05-29T03:05:31;14.05;;;5.72;;
80778;SDS011;70170;47.856;10.956;2023-05-29T03:07:57;16.20;;;5.70;;
80778;SDS011;70170;47.856;10.956;2023-05-29T03:10:22;12.52;;;5.68;;
80778;SDS011;70170;47.856;10.956;2023-05-29T03:12:47;16.70;;;6.18;;
80778;SDS011;70170;47.856;10.956;2023-05-29T03:15:13;11.75;;;4.88;;
80778;SDS011;70170;47.856;10.956;2023-05-29T03:17:39;14.45;;;5.97;;
80778;SDS011;70170;47.856;10.956;2023-05-29T03:20:04;15.30;;;6.30;;
80778;SDS011;70170;47.856;10.956;2023-05-29T03:22:31;17.15;;;7.03;;
80778;SDS011;70170;47.856;10.956;2023-05-29T03:24:57;13.35;;;7.13;;
80778;SDS011;70170;47.856;10.956;2023-05-29T03:27:22;14.55;;;6.85;;
80778;SDS011;70170;47.856;10.956;2023-05-29T03:29:48;13.05;;;6.07;;
80778;SDS011;70170;47.856;10.956;2023-05-29T03:32:13;17.17;;;7.13;;
80778;SDS011;70170;47.856;10.956;2023-05-29T03:34:39;17.30;;;7.18;;
80778;SDS011;70170;47.856;10.956;2023-05-29T03:37:04;12.48;;;6.55;;
80778;SDS011;70170;47.856;10.956;2023-05-29T03:39:30;13.20;;;6.57;;
80778;SDS011;70170;47.856;10.956;2023-05-29T03:41:55;13.13;;;5.57;;
80778;SDS011;70170;47.856;10.956;2023-05-29T03:44:21;13.13;;;5.65;;
80778;SDS011;70170;47.856;10.956;2023-05-29T03:46:46;9.43;;;5.80;;
80778;SDS011;70170;47.856;10.956;2023-05-29T03:49:11;10.63;;;6.18;;
80778;SDS011;70170;47.856;10.956;2023-05-29T03:51:37;15.02;;;6.57;;
80778;SDS011;70170;47.856;10.956;2023-05-29T03:54:03;10.70;;;6.47;;
80778;SDS011;70170;47.856;10.956;2023-05-29T03:56:28;10.35;;;6.55;;
80778;SDS011;70170;47.856;10.956;2023-05-29T03:58:53;12.82;;;7.60;;
80778;SDS011;70170;47.856;10.956;2023-05-29T04:01:19;11.40;;;5.60;;
80778;SDS011;70170;47.856;10.956;2023-05-29T04:03:45;9.55;;;5.43;;
80778;SDS011;70170;47.856;10.956;2023-05-29T04:06:11;14.25;;;6.43;;
80778;SDS011;70170;47.856;10.956;2023-05-29T04:08:36;10.43;;;5.85;;
80778;SDS011;70170;47.856;10.956;2023-05-29T04:11:01;11.18;;;5.65;;
80778;SDS011;70170;47.856;10.956;2023-05-29T04:13:28;8.88;;;5.65;;
80778;SDS011;70170;47.856;10.956;2023-05-29T04:15:54;16.60;;;6.22;;
80778;SDS011;70170;47.856;10.956;2023-05-29T04:18:19;11.98;;;6.22;;
80778;SDS011;70170;47.856;10.956;2023-05-29T04:20:45;9.30;;;5.32;;
80778;SDS011;70170;47.856;10.956;2023-05-29T04:23:12;9.95;;;5.93;;
80778;SDS011;70170;47.856;10.956;2023-05-29T04:25:37;11.20;;;5.88;;
80778;SDS011;70170;47.856;10.956;2023-05-29T04:28:03;10.30;;;5.40;;
80778;SDS011;70170;47.856;10.956;2023-05-29T04:30:28;11.18;;;5.82;;
80778;SDS011;70170;47.856;10.956;2023-05-29T04:32:53;10.52;;;5.93;;
80778;SDS011;70170;47.856;10.956;2023-05-29T04:35:19;13.18;;;6.78;;
80778;SDS011;70170;47.856;10.956;2023-05-29T04:37:44;8.55;;;5.72;;
80778;SDS011;70170;47.856;10.956;2023-05-29T04:40:11;13.80;;;7.07;;
80778;SDS011;70170;47.856;10.956;2023-05-29T04:42:36;10.40;;;5.30;;
80778;SDS011;70170;47.856;10.956;2023-05-29T04:45:03;8.40;;;4.90;;
80778;SDS011;70170;47.856;10.956;2023-05-29T04:47:31;13.60;;;5.65;;
80778;SDS011;70170;47.856;10.956;2023-05-29T04:50:01;12.23;;;5.45;;
80778;SDS011;70170;47.856;10.956;2023-05-29T04:52:27;14.70;;;5.97;;
80778;SDS011;70170;47.856;10.956;2023-05-29T04:54:53;14.30;;;5.95;;
80778;SDS011;70170;47.856;10.956;2023-05-29T04:57:19;8.77;;;5.25;;
80778;SDS011;70170;47.856;10.956;2023-05-29T04:59:45;9.68;;;5.78;;
80778;SDS011;70170;47.856;10.956;2023-05-29T05:02:10;10.40;;;5.95;;
80778;SDS011;70170;47.856;10.956;2023-05-29T05:04:35;12.80;;;6.10;;
80778;SDS011;70170;47.856;10.956;2023-05-29T05:07:01;10.88;;;6.00;;
80778;SDS011;70170;47.856;10.956;2023-05-29T05:09:28;11.32;;;6.13;;
80778;SDS011;70170;47.856;10.956;2023-05-29T05:11:54;10.55;;;5.50;;
80778;SDS011;70170;47.856;10.956;2023-05-29T05:14:19;12.20;;;5.70;;
80778;SDS011;70170;47.856;10.956;2023-05-29T05:16:45;16.20;;;5.72;;
80778;SDS011;70170;47.856;10.956;2023-05-29T05:19:10;15.90;;;6.20;;
80778;SDS011;70170;47.856;10.956;2023-05-29T05:21:35;10.43;;;5.22;;
80778;SDS011;70170;47.856;10.956;2023-05-29T05:24:01;7.53;;;5.03;;
80778;SDS011;70170;47.856;10.956;2023-05-29T05:26:26;14.15;;;5.50;;
80778;SDS011;70170;47.856;10.956;2023-05-29T05:28:51;9.65;;;5.00;;
80778;SDS011;70170;47.856;10.956;2023-05-29T05:31:17;9.85;;;5.15;;
80778;SDS011;70170;47.856;10.956;2023-05-29T05:33:42;9.50;;;4.68;;
80778;SDS011;70170;47.856;10.956;2023-05-29T05:36:07;11.07;;;5.25;;
80778;SDS011;70170;47.856;10.956;2023-05-29T05:38:33;11.68;;;5.47;;
80778;SDS011;70170;47.856;10.956;2023-05-29T05:40:58;13.75;;;5.25;;
80778;SDS011;70170;47.856;10.956;2023-05-29T05:43:23;10.27;;;5.35;;
80778;SDS011;70170;47.856;10.956;2023-05-29T05:45:51;10.90;;;5.50;;
80778;SDS011;70170;47.856;10.956;2023-05-29T05:48:16;8.98;;;5.13;;
80778;SDS011;70170;47.856;10.956;2023-05-29T05:50:42;11.40;;;5.43;;
80778;SDS011;70170;47.856;10.956;2023-05-29T05:53:07;10.48;;;4.93;;
80778;SDS011;70170;47.856;10.956;2023-05-29T05:55:32;9.63;;;5.00;;
80778;SDS011;70170;47.856;10.956;2023-05-29T05:57:57;9.57;;;4.70;;
80778;SDS011;70170;47.856;10.956;2023-05-29T06:00:23;12.05;;;4.75;;
80778;SDS011;70170;47.856;10.956;2023-05-29T06:02:49;11.38;;;5.20;;
80778;SDS011;70170;47.856;10.956;2023-05-29T06:05:14;11.10;;;4.72;;
80778;SDS011;70170;47.856;10.956;2023-05-29T06:07:40;12.48;;;5.00;;
80778;SDS011;70170;47.856;10.956;2023-05-29T06:10:05;9.13;;;5.05;;
80778;SDS011;70170;47.856;10.956;2023-05-29T06:12:31;14.05;;;5.40;;
80778;SDS011;70170;47.856;10.956;2023-05-29T06:14:56;7.90;;;5.03;;
80778;SDS011;70170;47.856;10.956;2023-05-29T06:17:22;8.23;;;5.10;;
80778;SDS011;70170;47.856;10.956;2023-05-29T06:19:48;9.57;;;5.05;;
80778;SDS011;70170;47.856;10.956;2023-05-29T06:22:14;8.30;;;4.78;;
80778;SDS011;70170;47.856;10.956;2023-05-29T06:24:40;7.75;;;5.47;;
80778;SDS011;70170;47.856;10.956;2023-05-29T06:27:05;10.65;;;4.68;;
80778;SDS011;70170;47.856;10.956;2023-05-29T06:29:31;8.48;;;4.97;;
80778;SDS011;70170;47.856;10.956;2023-05-29T06:31:57;7.18;;;5.15;;
80778;SDS011;70170;47.856;10.956;2023-05-29T06:34:22;9.23;;;5.38;;
80778;SDS011;70170;47.856;10.956;2023-05-29T06:36:47;10.02;;;4.93;;
80778;SDS011;70170;47.856;10.956;2023-05-29T06:39:13;13.73;;;4.95;;
80778;SDS011;70170;47.856;10.956;2023-05-29T06:41:38;7.18;;;4.57;;
80778;SDS011;70170;47.856;10.956;2023-05-29T06:44:04;10.27;;;4.75;;
80778;SDS011;70170;47.856;10.956;2023-05-29T06:46:29;7.03;;;4.63;;
80778;SDS011;70170;47.856;10.956;2023-05-29T06:48:55;6.05;;;4.18;;
80778;SDS011;70170;47.856;10.956;2023-05-29T06:51:21;5.70;;;4.10;;
80778;SDS011;70170;47.856;10.956;2023-05-29T06:53:46;9.85;;;4.25;;
80778;SDS011;70170;47.856;10.956;2023-05-29T06:56:11;9.10;;;3.92;;
80778;SDS011;70170;47.856;10.956;2023-05-29T06:58:36;8.57;;;3.55;;
80778;SDS011;70170;47.856;10.956;2023-05-29T07:01:02;6.32;;;3.38;;
80778;SDS011;70170;47.856;10.956;2023-05-29T07:03:27;4.82;;;3.40;;
80778;SDS011;70170;47.856;10.956;2023-05-29T07:05:53;6.25;;;3.95;;
80778;SDS011;70170;47.856;10.956;2023-05-29T07:08:18;13.43;;;4.00;;
80778;SDS011;70170;47.856;10.956;2023-05-29T07:10:44;6.63;;;3.28;;
80778;SDS011;70170;47.856;10.956;2023-05-29T07:13:09;6.05;;;3.38;;
80778;SDS011;70170;47.856;10.956;2023-05-29T07:15:36;4.72;;;3.33;;
80778;SDS011;70170;47.856;10.956;2023-05-29T07:18:02;6.40;;;3.70;;
80778;SDS011;70170;47.856;10.956;2023-05-29T07:20:27;10.43;;;3.78;;
80778;SDS011;70170;47.856;10.956;2023-05-29T07:22:52;7.57;;;3.25;;
80778;SDS011;70170;47.856;10.956;2023-05-29T07:25:18;8.20;;;3.40;;
80778;SDS011;70170;47.856;10.956;2023-05-29T07:27:43;6.40;;;3.80;;
80778;SDS011;70170;47.856;10.956;2023-05-29T07:30:09;6.43;;;3.92;;
80778;SDS011;70170;47.856;10.956;2023-05-29T07:32:35;6.25;;;3.63;;
80778;SDS011;70170;47.856;10.956;2023-05-29T07:35:00;4.93;;;3.65;;
80778;SDS011;70170;47.856;10.956;2023-05-29T07:37:25;7.80;;;3.78;;
80778;SDS011;70170;47.856;10.956;2023-05-29T07:39:51;5.95;;;3.70;;
80778;SDS011;70170;47.856;10.956;2023-05-29T07:42:16;6.45;;;3.85;;
80778;SDS011;70170;47.856;10.956;2023-05-29T07:44:41;6.60;;;3.78;;
80778;SDS011;70170;47.856;10.956;2023-05-29T07:47:08;5.30;;;3.55;;
80778;SDS011;70170;47.856;10.956;2023-05-29T07:49:33;5.20;;;3.90;;
80778;SDS011;70170;47.856;10.956;2023-05-29T07:52:00;7.32;;;4.00;;
80778;SDS011;70170;47.856;10.956;2023-05-29T07:54:26;8.93;;;3.45;;
80778;SDS011;70170;47.856;10.956;2023-05-29T07:56:51;5.90;;;3.95;;
80778;SDS011;70170;47.856;10.956;2023-05-29T07:59:16;5.65;;;3.53;;
80778;SDS011;70170;47.856;10.956;2023-05-29T08:01:42;7.68;;;3.60;;
80778;SDS011;70170;47.856;10.956;2023-05-29T08:04:08;5.53;;;3.60;;
80778;SDS011;70170;47.856;10.956;2023-05-29T08:06:34;5.78;;;3.83;;
80778;SDS011;70170;47.856;10.956;2023-05-29T08:08:59;8.88;;;4.38;;
80778;SDS011;70170;47.856;10.956;2023-05-29T08:11:24;6.55;;;3.10;;
80778;SDS011;70170;47.856;10.956;2023-05-29T08:13:50;7.90;;;3.85;;
80778;SDS011;70170;47.856;10.956;2023-05-29T08:16:15;5.47;;;3.47;;
80778;SDS011;70170;47.856;10.956;2023-05-29T08:18:41;7.43;;;3.80;;
80778;SDS011;70170;47.856;10.956;2023-05-29T08:21:07;5.88;;;3.78;;
80778;SDS011;70170;47.856;10.956;2023-05-29T08:23:34;5.63;;;3.70;;
80778;SDS011;70170;47.856;10.956;2023-05-29T08:25:59;6.55;;;3.78;;
80778;SDS011;70170;47.856;10.956;2023-05-29T08:28:25;7.25;;;4.35;;
80778;SDS011;70170;47.856;10.956;2023-05-29T08:30:51;8.68;;;3.92;;
80778;SDS011;70170;47.856;10.956;2023-05-29T08:33:17;6.35;;;3.78;;
80778;SDS011;70170;47.856;10.956;2023-05-29T08:35:42;9.18;;;3.53;;
80778;SDS011;70170;47.856;10.956;2023-05-29T08:38:08;7.00;;;3.95;;
80778;SDS011;70170;47.856;10.956;2023-05-29T08:40:33;6.10;;;3.47;;
80778;SDS011;70170;47.856;10.956;2023-05-29T08:43:10;6.85;;;3.40;;
80778;SDS011;70170;47.856;10.956;2023-05-29T08:45:40;5.85;;;4.03;;
80778;SDS011;70170;47.856;10.956;2023-05-29T08:48:07;7.15;;;3.88;;
80778;SDS011;70170;47.856;10.956;2023-05-29T08:50:35;4.95;;;3.60;;
80778;SDS011;70170;47.856;10.956;2023-05-29T08:53:01;5.18;;;3.17;;
80778;SDS011;70170;47.856;10.956;2023-05-29T08:55:26;6.75;;;3.67;;
80778;SDS011;70170;47.856;10.956;2023-05-29T08:57:52;5.57;;;3.80;;
80778;SDS011;70170;47.856;10.956;2023-05-29T09:00:18;5.03;;;3.63;;
80778;SDS011;70170;47.856;10.956;2023-05-29T09:02:45;9.35;;;3.60;;
80778;SDS011;70170;47.856;10.956;2023-05-29T09:05:14;5.93;;;3.53;;
80778;SDS011;70170;47.856;10.956;2023-05-29T09:07:39;7.47;;;4.00;;
80778;SDS011;70170;47.856;10.956;2023-05-29T09:10:06;10.07;;;3.80;;
80778;SDS011;70170;47.856;10.956;2023-05-29T09:12:35;9.00;;;3.90;;
80778;SDS011;70170;47.856;10.956;2023-05-29T09:15:00;7.68;;;3.88;;
80778;SDS011;70170;47.856;10.956;2023-05-29T09:17:32;7.82;;;4.50;;
80778;SDS011;70170;47.856;10.956;2023-05-29T09:19:58;5.65;;;4.05;;
80778;SDS011;70170;47.856;10.956;2023-05-29T09:22:24;6.45;;;4.45;;
80778;SDS011;70170;47.856;10.956;2023-05-29T09:24:49;7.88;;;4.80;;
80778;SDS011;70170;47.856;10.956;2023-05-29T09:27:15;7.05;;;3.80;;
80778;SDS011;70170;47.856;10.956;2023-05-29T09:29:42;8.80;;;4.05;;
80778;SDS011;70170;47.856;10.956;2023-05-29T09:32:11;8.77;;;4.40;;
80778;SDS011;70170;47.856;10.956;2023-05-29T09:34:37;7.40;;;3.97;;
80778;SDS011;70170;47.856;10.956;2023-05-29T09:37:05;5.30;;;4.00;;
80778;SDS011;70170;47.856;10.956;2023-05-29T09:39:44;9.38;;;4.40;;
80778;SDS011;70170;47.856;10.956;2023-05-29T09:42:10;8.38;;;4.18;;
80778;SDS011;70170;47.856;10.956;2023-05-29T09:44:36;7.70;;;4.10;;
80778;SDS011;70170;47.856;10.956;2023-05-29T09:47:01;7.00;;;4.15;;
80778;SDS011;70170;47.856;10.956;2023-05-29T09:49:27;9.52;;;3.97;;
80778;SDS011;70170;47.856;10.956;2023-05-29T09:51:56;10.85;;;4.28;;
80778;SDS011;70170;47.856;10.956;2023-05-29T09:54:24;7.28;;;4.05;;
80778;SDS011;70170;47.856;10.956;2023-05-29T09:56:54;9.35;;;4.30;;
80778;SDS011;70170;47.856;10.956;2023-05-29T09:59:21;5.70;;;4.32;;
80778;SDS011;70170;47.856;10.956;2023-05-29T10:01:48;9.30;;;4.82;;
80778;SDS011;70170;47.856;10.956;2023-05-29T10:04:14;9.95;;;4.05;;
80778;SDS011;70170;47.856;10.956;2023-05-29T10:06:46;6.13;;;3.95;;
80778;SDS011;70170;47.856;10.956;2023-05-29T10:09:14;4.78;;;3.45;;
80778;SDS011;70170;47.856;10.956;2023-05-29T10:11:43;8.18;;;4.75;;
80778;SDS011;70170;47.856;10.956;2023-05-29T10:14:09;5.65;;;3.90;;
80778;SDS011;70170;47.856;10.956;2023-05-29T10:16:40;7.78;;;4.50;;
80778;SDS011;70170;47.856;10.956;2023-05-29T10:19:10;6.32;;;3.90;;
80778;SDS011;70170;47.856;10.956;2023-05-29T10:21:37;6.45;;;4.13;;
80778;SDS011;70170;47.856;10.956;2023-05-29T10:24:06;10.60;;;3.80;;
80778;SDS011;70170;47.856;10.956;2023-05-29T10:26:34;7.63;;;4.20;;
80778;SDS011;70170;47.856;10.956;2023-05-29T10:29:04;8.15;;;3.72;;
80778;SDS011;70170;47.856;10.956;2023-05-29T10:37:03;9.10;;;4.15;;
80778;SDS011;70170;47.856;10.956;2023-05-29T10:39:34;11.30;;;4.25;;
80778;SDS011;70170;47.856;10.956;2023-05-29T10:42:00;7.65;;;4.43;;
80778;SDS011;70170;47.856;10.956;2023-05-29T10:49:25;8.02;;;4.68;;
80778;SDS011;70170;47.856;10.956;2023-05-29T10:51:50;7.07;;;4.15;;
80778;SDS011;70170;47.856;10.956;2023-05-29T10:54:19;10.32;;;4.28;;
80778;SDS011;70170;47.856;10.956;2023-05-29T10:56:55;8.75;;;4.20;;
80778;SDS011;70170;47.856;10.956;2023-05-29T10:59:22;13.95;;;4.13;;
80778;SDS011;70170;47.856;10.956;2023-05-29T11:01:52;5.57;;;3.70;;
80778;SDS011;70170;47.856;10.956;2023-05-29T11:06:46;6.13;;;3.58;;
80778;SDS011;70170;47.856;10.956;2023-05-29T11:09:28;9.13;;;4.63;;
80778;SDS011;70170;47.856;10.956;2023-05-29T11:17:51;5.90;;;3.55;;
80778;SDS011;70170;47.856;10.956;2023-05-29T11:25:26;8.85;;;4.25;;
80778;SDS011;70170;47.856;10.956;2023-05-29T11:27:52;6.75;;;4.10;;
80778;SDS011;70170;47.856;10.956;2023-05-29T11:30:21;6.13;;;4.20;;
80778;SDS011;70170;47.856;10.956;2023-05-29T11:32:46;7.30;;;3.67;;
80778;SDS011;70170;47.856;10.956;2023-05-29T11:35:13;7.10;;;3.95;;
80778;SDS011;70170;47.856;10.956;2023-05-29T11:37:39;7.20;;;3.63;;
80778;SDS011;70170;47.856;10.956;2023-05-29T11:40:07;6.47;;;4.00;;
80778;SDS011;70170;47.856;10.956;2023-05-29T11:42:34;5.93;;;3.83;;
80778;SDS011;70170;47.856;10.956;2023-05-29T11:45:10;7.85;;;3.97;;
80778;SDS011;70170;47.856;10.956;2023-05-29T11:50:33;5.47;;;4.13;;
80778;SDS011;70170;47.856;10.956;2023-05-29T11:53:01;6.90;;;4.70;;
80778;SDS011;70170;47.856;10.956;2023-05-29T11:55:27;5.45;;;3.70;;
80778;SDS011;70170;47.856;10.956;2023-05-29T11:57:57;6.97;;;4.07;;
80778;SDS011;70170;47.856;10.956;2023-05-29T12:00:31;6.85;;;3.90;;
80778;SDS011;70170;47.856;10.956;2023-05-29T12:02:57;7.47;;;4.18;;
80778;SDS011;70170;47.856;10.956;2023-05-29T12:05:28;7.03;;;4.68;;
80778;SDS011;70170;47.856;10.956;2023-05-29T12:07:54;5.47;;;3.58;;
80778;SDS011;70170;47.856;10.956;2023-05-29T12:10:23;8.07;;;4.10;;
80778;SDS011;70170;47.856;10.956;2023-05-29T12:12:53;7.20;;;4.20;;
80778;SDS011;70170;47.856;10.956;2023-05-29T12:15:19;5.95;;;4.10;;
80778;SDS011;70170;47.856;10.956;2023-05-29T12:17:46;5.47;;;3.97;;
80778;SDS011;70170;47.856;10.956;2023-05-29T12:20:13;7.53;;;4.20;;
80778;SDS011;70170;47.856;10.956;2023-05-29T12:22:40;6.88;;;3.97;;
80778;SDS011;70170;47.856;10.956;2023-05-29T12:25:07;4.80;;;3.85;;
80778;SDS011;70170;47.856;10.956;2023-05-29T12:27:46;4.07;;;3.72;;
80778;SDS011;70170;47.856;10.956;2023-05-29T12:30:29;7.05;;;3.33;;
80778;SDS011;70170;47.856;10.956;2023-05-29T12:32:55;5.80;;;4.07;;
80778;SDS011;70170;47.856;10.956;2023-05-29T12:35:22;20.63;;;4.32;;
80778;SDS011;70170;47.856;10.956;2023-05-29T12:37:55;7.93;;;4.15;;
80778;SDS011;70170;47.856;10.956;2023-05-29T12:40:26;5.60;;;3.70;;
80778;SDS011;70170;47.856;10.956;2023-05-29T12:42:59;8.07;;;3.95;;
80778;SDS011;70170;47.856;10.956;2023-05-29T12:45:36;7.35;;;3.47;;
80778;SDS011;70170;47.856;10.956;2023-05-29T12:50:29;8.65;;;4.03;;
80778;SDS011;70170;47.856;10.956;2023-05-29T12:53:02;5.20;;;3.50;;
80778;SDS011;70170;47.856;10.956;2023-05-29T12:57:58;5.28;;;3.53;;
80778;SDS011;70170;47.856;10.956;2023-05-29T13:00:24;6.43;;;3.90;;
80778;SDS011;70170;47.856;10.956;2023-05-29T13:02:49;10.23;;;3.75;;
80778;SDS011;70170;47.856;10.956;2023-05-29T13:05:15;8.10;;;4.18;;
80778;SDS011;70170;47.856;10.956;2023-05-29T13:07:43;5.60;;;3.80;;
80778;SDS011;70170;47.856;10.956;2023-05-29T13:10:09;6.22;;;3.70;;
80778;SDS011;70170;47.856;10.956;2023-05-29T13:12:35;5.78;;;3.70;;
80778;SDS011;70170;47.856;10.956;2023-05-29T13:15:00;7.18;;;3.83;;
80778;SDS011;70170;47.856;10.956;2023-05-29T13:17:25;5.78;;;3.67;;
80778;SDS011;70170;47.856;10.956;2023-05-29T13:19:51;8.65;;;4.50;;
80778;SDS011;70170;47.856;10.956;2023-05-29T13:22:17;16.38;;;4.32;;
80778;SDS011;70170;47.856;10.956;2023-05-29T13:24:42;6.97;;;4.15;;
80778;SDS011;70170;47.856;10.956;2023-05-29T13:27:07;9.90;;;3.88;;
80778;SDS011;70170;47.856;10.956;2023-05-29T13:29:33;4.75;;;4.00;;
80778;SDS011;70170;47.856;10.956;2023-05-29T13:32:00;4.15;;;3.42;;
80778;SDS011;70170;47.856;10.956;2023-05-29T13:34:25;7.30;;;3.85;;
80778;SDS011;70170;47.856;10.956;2023-05-29T13:36:56;5.75;;;3.85;;
80778;SDS011;70170;47.856;10.956;2023-05-29T13:39:21;7.82;;;4.15;;
80778;SDS011;70170;47.856;10.956;2023-05-29T13:41:47;7.97;;;4.10;;
80778;SDS011;70170;47.856;10.956;2023-05-29T13:44:12;7.25;;;4.30;;
80778;SDS011;70170;47.856;10.956;2023-05-29T13:46:38;6.88;;;4.20;;
80778;SDS011;70170;47.856;10.956;2023-05-29T13:49:03;6.22;;;3.63;;
80778;SDS011;70170;47.856;10.956;2023-05-29T13:51:28;11.57;;;3.67;;
80778;SDS011;70170;47.856;10.956;2023-05-29T13:53:53;4.80;;;3.70;;
80778;SDS011;70170;47.856;10.956;2023-05-29T13:56:19;7.63;;;3.92;;
80778;SDS011;70170;47.856;10.956;2023-05-29T13:58:44;6.68;;;4.13;;
80778;SDS011;70170;47.856;10.956;2023-05-29T14:01:09;10.27;;;4.10;;
80778;SDS011;70170;47.856;10.956;2023-05-29T14:03:35;6.97;;;4.07;;
80778;SDS011;70170;47.856;10.956;2023-05-29T14:06:00;8.43;;;4.65;;
80778;SDS011;70170;47.856;10.956;2023-05-29T14:08:27;6.07;;;3.53;;
80778;SDS011;70170;47.856;10.956;2023-05-29T14:10:53;6.00;;;3.17;;
80778;SDS011;70170;47.856;10.956;2023-05-29T14:13:18;9.90;;;4.10;;
80778;SDS011;70170;47.856;10.956;2023-05-29T14:15:43;6.97;;;3.70;;
80778;SDS011;70170;47.856;10.956;2023-05-29T14:18:09;7.05;;;3.40;;
80778;SDS011;70170;47.856;10.956;2023-05-29T14:20:34;5.78;;;3.50;;
80778;SDS011;70170;47.856;10.956;2023-05-29T14:22:59;4.50;;;3.65;;
80778;SDS011;70170;47.856;10.956;2023-05-29T14:25:24;5.00;;;3.45;;
80778;SDS011;70170;47.856;10.956;2023-05-29T14:27:50;5.60;;;3.60;;
80778;SDS011;70170;47.856;10.956;2023-05-29T14:30:16;5.53;;;3.42;;
80778;SDS011;70170;47.856;10.956;2023-05-29T14:32:42;7.10;;;3.63;;
80778;SDS011;70170;47.856;10.956;2023-05-29T14:35:08;8.02;;;3.88;;
80778;SDS011;70170;47.856;10.956;2023-05-29T14:37:34;6.97;;;3.30;;
80778;SDS011;70170;47.856;10.956;2023-05-29T14:40:00;6.97;;;3.75;;
80778;SDS011;70170;47.856;10.956;2023-05-29T14:42:25;6.82;;;3.78;;
80778;SDS011;70170;47.856;10.956;2023-05-29T14:44:50;5.25;;;3.63;;
80778;SDS011;70170;47.856;10.956;2023-05-29T14:47:16;16.35;;;3.97;;
80778;SDS011;70170;47.856;10.956;2023-05-29T14:49:43;4.35;;;3.10;;
80778;SDS011;70170;47.856;10.956;2023-05-29T14:52:08;5.55;;;3.85;;
80778;SDS011;70170;47.856;10.956;2023-05-29T14:54:34;5.18;;;3.40;;
80778;SDS011;70170;47.856;10.956;2023-05-29T14:56:59;5.43;;;3.42;;
80778;SDS011;70170;47.856;10.956;2023-05-29T14:59:25;6.03;;;3.92;;
80778;SDS011;70170;47.856;10.956;2023-05-29T15:01:50;9.75;;;3.60;;
80778;SDS011;70170;47.856;10.956;2023-05-29T15:04:16;5.10;;;3.33;;
80778;SDS011;70170;47.856;10.956;2023-05-29T15:06:41;7.22;;;3.67;;
80778;SDS011;70170;47.856;10.956;2023-05-29T15:09:06;12.30;;;4.28;;